Kapitan Dranitsyn — UCJP — position and weather

sailwx.info

Track history (hours):
 
Tides and Currents Weather Stations Pressure Air Temp Water Temp Dewpoint Dewpoint Depression Visibility Wind Speed Wind Dir Waves Ship Positions

Oceanographic research ship Kapitan Dranitsyn (Russia)

Detailed information on ship capabilities available from ARCUS's ALIAS (Arctic Logistics Information and Support) project.

Last reported at 2016-Feb-07 02:04 UTC. Time now 2016-Feb-10 15:13 UTC.
Position N 58°59' E 004°17'.

Length 132 m; beam 27 m.

Type: Other ship. MMSI: 273138300.

Date/timePositionNaut miles runAvg speedWind from/ knotsBaromVisibWave heightAir tempDewpointWater temp
2016-Feb-07 02:04N 58°59' E 004°17'714.6
2016-Feb-07 01:33N 58°54' E 004°28'1515.0
2016-Feb-07 00:34N 58°43' E 004°47'1515.0
2016-Feb-06 23:33N 58°32' E 005°08'1515.4
2016-Feb-06 22:33N 58°22' E 005°29'1615.9
2016-Feb-06 21:33N 58°10' E 005°51'1615.9
2016-Feb-06 20:33N 57°60' E 006°13'1616.3
2016-Feb-06 19:33N 57°50' E 006°38'1515.4
2016-Feb-06 18:33N 57°48' E 007°06'3516.0
2016-Feb-06 16:20N 57°49' E 008°13'1315.1
2016-Feb-06 15:28N 57°49' E 008°37'1414.7
2016-Feb-06 14:31N 57°49' E 009°03'1514.5
2016-Feb-06 13:28N 57°49' E 009°32'1314.0
2016-Feb-06 12:31N 57°49' E 009°57'1313.7
2016-Feb-06 11:33N 57°49' E 010°22'1413.8
2016-Feb-06 10:33N 57°48' E 010°47'1515.1
2016-Feb-06 09:33N 57°37' E 011°08'1111.3
2016-Feb-06 08:34N 57°29' E 011°23'1110.6
2016-Feb-06 07:33N 57°20' E 011°31'1010.4
2016-Feb-06 06:33N 57°10' E 011°38'1110.5
2016-Feb-06 05:33N 57°00' E 011°45'1010.2
2016-Feb-06 04:33N 56°51' E 011°51'9 9.2
2016-Feb-06 03:33N 56°42' E 011°51'2410.8
2016-Feb-06 01:21N 56°21' E 011°28'5810.0
2016-Feb-05 19:33N 55°25' E 010°59'1211.7
2016-Feb-05 18:33N 55°14' E 011°06'1111.1
2016-Feb-05 17:33N 55°04' E 011°03'1111.0
2016-Feb-05 16:33N 54°54' E 010°54'1111.2
2016-Feb-05 15:34N 54°42' E 010°53'1010.4
2016-Feb-05 14:33N 54°37' E 011°09'1010.2
2016-Feb-05 13:33N 54°32' E 011°24'1010.4
2016-Feb-05 12:33N 54°28' E 011°40'9 9.4
2016-Feb-05 11:33N 54°26' E 011°56'10 8.4
2016-Feb-05 10:25N 54°30' E 012°11'8 9.1
2016-Feb-05 09:33N 54°37' E 012°16'46 9.2
2016-Feb-05 04:32N 54°57' E 013°29'8 8.6
2016-Feb-05 03:33N 54°60' E 013°43'10 9.8
2016-Feb-05 02:33N 55°03' E 013°59'9 8.6
2016-Feb-05 01:33N 55°09' E 014°10'8 7.7
2016-Feb-05 00:33N 55°14' E 014°19'9 9.1
2016-Feb-04 23:33N 55°21' E 014°29'9 9.0
2016-Feb-04 22:33N 55°28' E 014°41'9 9.1
2016-Feb-04 21:33N 55°32' E 014°55'10 9.9
2016-Feb-04 20:33N 55°37' E 015°10'10 9.4
2016-Feb-04 19:29N 55°40' E 015°28'426 8.7
2016-Feb-02 18:18N 59°57' E 026°04'6 8.5
2016-Feb-02 17:33N 59°59' E 026°17'8 8.5
2016-Feb-02 16:33N 60°01' E 026°33'9 8.3
2016-Feb-02 15:32N 60°00' E 026°50'8 8.0
2016-Feb-02 14:32N 60°00' E 027°06'9 8.8
2016-Feb-02 13:32N 60°04' E 027°21'9 8.2
2016-Feb-02 12:23N 60°09' E 027°37'6 7.3
2016-Feb-02 11:33N 60°12' E 027°49'8 7.7
2016-Feb-02 10:33N 60°10' E 028°04'7 7.5
2016-Feb-02 09:33N 60°07' E 028°18'9 8.9
2016-Feb-02 08:33N 60°03' E 028°34'9 8.9
2016-Feb-02 07:33N 60°03' E 028°51'9 9.4
2016-Feb-02 06:33N 60°02' E 029°10'14 2.3
2016-Feb-02 00:09N 60°00' E 029°39'610.3
2016-Feb-01 23:33N 59°57' E 029°50'1010.5
2016-Feb-01 22:33N 59°53' E 030°09'3 3.2
2016-Feb-01 21:34N 59°55' E 030°15'1 0.5
2016-Feb-01 20:29N 59°55' E 030°14'0 0.0
2016-Feb-01 19:32N 59°55' E 030°14'0 0.0
2016-Feb-01 18:32N 59°55' E 030°14'0 0.0
2016-Feb-01 17:32N 59°55' E 030°14'0 0.0
2016-Feb-01 16:32N 59°55' E 030°14'0 0.0
2016-Feb-01 15:32N 59°55' E 030°14'0 0.0
2016-Feb-01 14:32N 59°55' E 030°14'0 0.0
2016-Feb-01 13:32N 59°55' E 030°14'0 0.0
2016-Feb-01 12:32N 59°55' E 030°14'0 0.0
2016-Feb-01 11:32N 59°55' E 030°14'0 0.0
2016-Feb-01 10:32N 59°55' E 030°14'0 0.0
2016-Feb-01 09:32N 59°55' E 030°14'0 0.0
2016-Feb-01 08:32N 59°55' E 030°14'0 0.0
2016-Feb-01 07:32N 59°55' E 030°14'0 0.0
2016-Feb-01 06:32N 59°55' E 030°14'0 0.0
2016-Feb-01 05:32N 59°55' E 030°14'0 0.0
2016-Feb-01 04:32N 59°55' E 030°14'0 0.0
2016-Feb-01 03:32N 59°55' E 030°14'0 0.0
2016-Feb-01 02:32N 59°55' E 030°14'0 0.0
2016-Feb-01 01:32N 59°55' E 030°14'0 0.0
2016-Feb-01 00:32N 59°55' E 030°14'0 0.0
2016-Jan-31 23:32N 59°55' E 030°14'0 0.0
2016-Jan-31 22:32N 59°55' E 030°14'0 0.0
2016-Jan-31 21:32N 59°55' E 030°14'0 0.0
2016-Jan-31 20:32N 59°55' E 030°14'0 0.0
2016-Jan-31 19:32N 59°55' E 030°14'0 0.0
2016-Jan-31 18:32N 59°55' E 030°14'0 0.0
2016-Jan-31 17:32N 59°55' E 030°14'0 0.0
2016-Jan-31 16:32N 59°55' E 030°14'0 0.0
2016-Jan-31 15:32N 59°55' E 030°14'0 0.0
2016-Jan-31 14:32N 59°55' E 030°14'0 0.0
2016-Jan-31 13:32N 59°55' E 030°14'0 0.0
2016-Jan-31 12:32N 59°55' E 030°14'0 0.0
2016-Jan-31 11:32N 59°55' E 030°14'0 0.0
2016-Jan-31 10:32N 59°55' E 030°14'0 0.0
2016-Jan-31 09:32N 59°55' E 030°14'0 0.0
2016-Jan-31 08:32N 59°55' E 030°14'0 0.0
2016-Jan-31 07:32N 59°55' E 030°14'0 0.0
2016-Jan-31 06:32N 59°55' E 030°14'0 0.0
2016-Jan-31 05:32N 59°55' E 030°14'0 0.0
2016-Jan-31 04:32N 59°55' E 030°14'0 0.0
2016-Jan-31 03:32N 59°55' E 030°14'0 0.0
2016-Jan-31 02:32N 59°55' E 030°14'0 0.0
2016-Jan-31 01:32N 59°55' E 030°14'0 0.0
2016-Jan-31 00:32N 59°55' E 030°14'0 0.0
2016-Jan-30 23:32N 59°55' E 030°14'0 0.0
2016-Jan-30 22:32N 59°55' E 030°14'0 0.0
2016-Jan-30 21:32N 59°55' E 030°14'0 0.0
2016-Jan-30 20:32N 59°55' E 030°14'0 0.0
2016-Jan-30 19:32N 59°55' E 030°14'0 0.0
2016-Jan-30 18:32N 59°55' E 030°14'0 0.0
2016-Jan-30 17:32N 59°55' E 030°14'0 0.0
2016-Jan-30 16:32N 59°55' E 030°14'0 0.0
2016-Jan-30 15:32N 59°55' E 030°14'0 0.0
2016-Jan-30 14:32N 59°55' E 030°14'0 0.0
2016-Jan-30 13:32N 59°55' E 030°14'0 0.0
2016-Jan-30 12:32N 59°55' E 030°14'0 0.0
2016-Jan-30 11:32N 59°55' E 030°14'0 0.0
2016-Jan-30 10:32N 59°55' E 030°14'0 0.0
2016-Jan-30 09:32N 59°55' E 030°14'0 0.0
2016-Jan-30 08:32N 59°55' E 030°14'0 0.0
2016-Jan-30 07:32N 59°55' E 030°14'0 0.0
2016-Jan-30 06:32N 59°55' E 030°14'0 0.0
2016-Jan-30 05:32N 59°55' E 030°14'0 0.0
2016-Jan-30 04:32N 59°55' E 030°14'0 0.0
2016-Jan-30 03:32N 59°55' E 030°14'0 0.0
2016-Jan-30 02:32N 59°55' E 030°14'0 0.0
2016-Jan-30 01:32N 59°55' E 030°14'0 0.0
2016-Jan-30 00:32N 59°55' E 030°14'0 0.0
2016-Jan-29 23:32N 59°55' E 030°14'0 0.0
2016-Jan-29 22:32N 59°55' E 030°14'0 0.0
2016-Jan-29 21:32N 59°55' E 030°14'0 0.0
2016-Jan-29 20:32N 59°55' E 030°14'0 0.0
2016-Jan-29 19:32N 59°55' E 030°14'0 0.0
2016-Jan-29 18:32N 59°55' E 030°14'0 0.0
2016-Jan-29 17:32N 59°55' E 030°14'0 0.0
2016-Jan-29 16:32N 59°55' E 030°14'0 0.0
2016-Jan-29 15:32N 59°55' E 030°14'0 0.0
2016-Jan-29 14:32N 59°55' E 030°14'0 0.0
2016-Jan-29 13:29N 59°55' E 030°14'0 0.0
2016-Jan-29 12:32N 59°55' E 030°14'0 0.0
2016-Jan-29 11:32N 59°55' E 030°14'0 0.0
2016-Jan-29 10:32N 59°55' E 030°14'0 0.0
2016-Jan-29 09:32N 59°55' E 030°14'0 0.0
2016-Jan-29 08:32N 59°55' E 030°14'0 0.0
2016-Jan-29 07:32N 59°55' E 030°14'0 0.0
2016-Jan-29 06:32N 59°55' E 030°14'0 0.0
2016-Jan-29 05:32N 59°55' E 030°14'0 0.0
2016-Jan-29 04:32N 59°55' E 030°14'0 0.0
2016-Jan-29 03:32N 59°55' E 030°14'0 0.0
2016-Jan-29 02:32N 59°55' E 030°14'0 0.0
2016-Jan-29 01:32N 59°55' E 030°14'0 0.0
2016-Jan-29 00:32N 59°55' E 030°14'0 0.0
2016-Jan-28 23:32N 59°55' E 030°14'0 0.0
2016-Jan-28 22:32N 59°55' E 030°14'0 0.0
2016-Jan-28 21:32N 59°55' E 030°14'0 0.0
2016-Jan-28 20:32N 59°55' E 030°14'0 0.0
2016-Jan-28 19:32N 59°55' E 030°14'0 0.0
2016-Jan-28 18:32N 59°55' E 030°14'0 0.0
2016-Jan-28 17:32N 59°55' E 030°14'0 0.0
2016-Jan-28 16:32N 59°55' E 030°14'0 0.0
2016-Jan-28 15:32N 59°55' E 030°14'0 0.0
2016-Jan-28 14:32N 59°55' E 030°14'0 0.0
2016-Jan-28 13:32N 59°55' E 030°14'0 0.0
2016-Jan-28 12:32N 59°55' E 030°14'0 0.0
2016-Jan-28 11:32N 59°55' E 030°14'0 0.0
2016-Jan-28 10:32N 59°55' E 030°14'0 0.0
2016-Jan-28 09:32N 59°55' E 030°14'0 0.0
2016-Jan-28 08:32N 59°55' E 030°14'0 0.0
2016-Jan-28 07:29N 59°55' E 030°14'0 0.0
2016-Jan-28 06:32N 59°55' E 030°14'0 0.0
2016-Jan-28 05:32N 59°55' E 030°14'0 0.0
2016-Jan-28 04:32N 59°55' E 030°14'0 0.0
2016-Jan-28 03:32N 59°55' E 030°14'0 0.0
2016-Jan-28 02:32N 59°55' E 030°14'  
Track history (hours):
 
Tides and Currents Weather Stations Pressure Air Temp Water Temp Dewpoint Dewpoint Depression Visibility Wind Speed Wind Dir Waves Ship Positions

Oceanographic research ship Kapitan Dranitsyn (Russia)

Detailed information on ship capabilities available from ARCUS's ALIAS (Arctic Logistics Information and Support) project.

Last reported at 2016-Feb-07 02:04 UTC. Time now 2016-Feb-10 15:13 UTC.
Position N 58°59' E 004°17'.

Length 132 m; beam 27 m.

Type: Other ship. MMSI: 273138300.

Date/timePositionNaut miles runAvg speedWind from/ knotsBaromVisibWave heightAir tempDewpointWater temp
2016-Feb-07 02:04N 58°59' E 004°17'714.6
2016-Feb-07 01:33N 58°54' E 004°28'1515.0
2016-Feb-07 00:34N 58°43' E 004°47'1515.0
2016-Feb-06 23:33N 58°32' E 005°08'1515.4
2016-Feb-06 22:33N 58°22' E 005°29'1615.9
2016-Feb-06 21:33N 58°10' E 005°51'1615.9
2016-Feb-06 20:33N 57°60' E 006°13'1616.3
2016-Feb-06 19:33N 57°50' E 006°38'1515.4
2016-Feb-06 18:33N 57°48' E 007°06'3516.0
2016-Feb-06 16:20N 57°49' E 008°13'1315.1
2016-Feb-06 15:28N 57°49' E 008°37'1414.7
2016-Feb-06 14:31N 57°49' E 009°03'1514.5
2016-Feb-06 13:28N 57°49' E 009°32'1314.0
2016-Feb-06 12:31N 57°49' E 009°57'1313.7
2016-Feb-06 11:33N 57°49' E 010°22'1413.8
2016-Feb-06 10:33N 57°48' E 010°47'1515.1
2016-Feb-06 09:33N 57°37' E 011°08'1111.3
2016-Feb-06 08:34N 57°29' E 011°23'1110.6
2016-Feb-06 07:33N 57°20' E 011°31'1010.4
2016-Feb-06 06:33N 57°10' E 011°38'1110.5
2016-Feb-06 05:33N 57°00' E 011°45'1010.2
2016-Feb-06 04:33N 56°51' E 011°51'9 9.2
2016-Feb-06 03:33N 56°42' E 011°51'2410.8
2016-Feb-06 01:21N 56°21' E 011°28'5810.0
2016-Feb-05 19:33N 55°25' E 010°59'1211.7
2016-Feb-05 18:33N 55°14' E 011°06'1111.1
2016-Feb-05 17:33N 55°04' E 011°03'1111.0
2016-Feb-05 16:33N 54°54' E 010°54'1111.2
2016-Feb-05 15:34N 54°42' E 010°53'1010.4
2016-Feb-05 14:33N 54°37' E 011°09'1010.2
2016-Feb-05 13:33N 54°32' E 011°24'1010.4
2016-Feb-05 12:33N 54°28' E 011°40'9 9.4
2016-Feb-05 11:33N 54°26' E 011°56'10 8.4
2016-Feb-05 10:25N 54°30' E 012°11'8 9.1
2016-Feb-05 09:33N 54°37' E 012°16'46 9.2
2016-Feb-05 04:32N 54°57' E 013°29'8 8.6
2016-Feb-05 03:33N 54°60' E 013°43'10 9.8
2016-Feb-05 02:33N 55°03' E 013°59'9 8.6
2016-Feb-05 01:33N 55°09' E 014°10'8 7.7
2016-Feb-05 00:33N 55°14' E 014°19'9 9.1
2016-Feb-04 23:33N 55°21' E 014°29'9 9.0
2016-Feb-04 22:33N 55°28' E 014°41'9 9.1
2016-Feb-04 21:33N 55°32' E 014°55'10 9.9
2016-Feb-04 20:33N 55°37' E 015°10'10 9.4
2016-Feb-04 19:29N 55°40' E 015°28'426 8.7
2016-Feb-02 18:18N 59°57' E 026°04'6 8.5
2016-Feb-02 17:33N 59°59' E 026°17'8 8.5
2016-Feb-02 16:33N 60°01' E 026°33'9 8.3
2016-Feb-02 15:32N 60°00' E 026°50'8 8.0
2016-Feb-02 14:32N 60°00' E 027°06'9 8.8
2016-Feb-02 13:32N 60°04' E 027°21'9 8.2
2016-Feb-02 12:23N 60°09' E 027°37'6 7.3
2016-Feb-02 11:33N 60°12' E 027°49'8 7.7
2016-Feb-02 10:33N 60°10' E 028°04'7 7.5
2016-Feb-02 09:33N 60°07' E 028°18'9 8.9
2016-Feb-02 08:33N 60°03' E 028°34'9 8.9
2016-Feb-02 07:33N 60°03' E 028°51'9 9.4
2016-Feb-02 06:33N 60°02' E 029°10'14 2.3
2016-Feb-02 00:09N 60°00' E 029°39'610.3
2016-Feb-01 23:33N 59°57' E 029°50'1010.5
2016-Feb-01 22:33N 59°53' E 030°09'3 3.2
2016-Feb-01 21:34N 59°55' E 030°15'1 0.5
2016-Feb-01 20:29N 59°55' E 030°14'0 0.0
2016-Feb-01 19:32N 59°55' E 030°14'0 0.0
2016-Feb-01 18:32N 59°55' E 030°14'0 0.0
2016-Feb-01 17:32N 59°55' E 030°14'0 0.0
2016-Feb-01 16:32N 59°55' E 030°14'0 0.0
2016-Feb-01 15:32N 59°55' E 030°14'0 0.0
2016-Feb-01 14:32N 59°55' E 030°14'0 0.0
2016-Feb-01 13:32N 59°55' E 030°14'0 0.0
2016-Feb-01 12:32N 59°55' E 030°14'0 0.0
2016-Feb-01 11:32N 59°55' E 030°14'0 0.0
2016-Feb-01 10:32N 59°55' E 030°14'0 0.0
2016-Feb-01 09:32N 59°55' E 030°14'0 0.0
2016-Feb-01 08:32N 59°55' E 030°14'0 0.0
2016-Feb-01 07:32N 59°55' E 030°14'0 0.0
2016-Feb-01 06:32N 59°55' E 030°14'0 0.0
2016-Feb-01 05:32N 59°55' E 030°14'0 0.0
2016-Feb-01 04:32N 59°55' E 030°14'0 0.0
2016-Feb-01 03:32N 59°55' E 030°14'0 0.0
2016-Feb-01 02:32N 59°55' E 030°14'0 0.0
2016-Feb-01 01:32N 59°55' E 030°14'0 0.0
2016-Feb-01 00:32N 59°55' E 030°14'0 0.0
2016-Jan-31 23:32N 59°55' E 030°14'0 0.0
2016-Jan-31 22:32N 59°55' E 030°14'0 0.0
2016-Jan-31 21:32N 59°55' E 030°14'0 0.0
2016-Jan-31 20:32N 59°55' E 030°14'0 0.0
2016-Jan-31 19:32N 59°55' E 030°14'0 0.0
2016-Jan-31 18:32N 59°55' E 030°14'0 0.0
2016-Jan-31 17:32N 59°55' E 030°14'0 0.0
2016-Jan-31 16:32N 59°55' E 030°14'0 0.0
2016-Jan-31 15:32N 59°55' E 030°14'0 0.0
2016-Jan-31 14:32N 59°55' E 030°14'0 0.0
2016-Jan-31 13:32N 59°55' E 030°14'0 0.0
2016-Jan-31 12:32N 59°55' E 030°14'0 0.0
2016-Jan-31 11:32N 59°55' E 030°14'0 0.0
2016-Jan-31 10:32N 59°55' E 030°14'0 0.0
2016-Jan-31 09:32N 59°55' E 030°14'0 0.0
2016-Jan-31 08:32N 59°55' E 030°14'0 0.0
2016-Jan-31 07:32N 59°55' E 030°14'0 0.0
2016-Jan-31 06:32N 59°55' E 030°14'0 0.0
2016-Jan-31 05:32N 59°55' E 030°14'0 0.0
2016-Jan-31 04:32N 59°55' E 030°14'0 0.0
2016-Jan-31 03:32N 59°55' E 030°14'0 0.0
2016-Jan-31 02:32N 59°55' E 030°14'0 0.0
2016-Jan-31 01:32N 59°55' E 030°14'0 0.0
2016-Jan-31 00:32N 59°55' E 030°14'0 0.0
2016-Jan-30 23:32N 59°55' E 030°14'0 0.0
2016-Jan-30 22:32N 59°55' E 030°14'0 0.0
2016-Jan-30 21:32N 59°55' E 030°14'0 0.0
2016-Jan-30 20:32N 59°55' E 030°14'0 0.0
2016-Jan-30 19:32N 59°55' E 030°14'0 0.0
2016-Jan-30 18:32N 59°55' E 030°14'0 0.0
2016-Jan-30 17:32N 59°55' E 030°14'0 0.0
2016-Jan-30 16:32N 59°55' E 030°14'0 0.0
2016-Jan-30 15:32N 59°55' E 030°14'0 0.0
2016-Jan-30 14:32N 59°55' E 030°14'0 0.0
2016-Jan-30 13:32N 59°55' E 030°14'0 0.0
2016-Jan-30 12:32N 59°55' E 030°14'0 0.0
2016-Jan-30 11:32N 59°55' E 030°14'0 0.0
2016-Jan-30 10:32N 59°55' E 030°14'0 0.0
2016-Jan-30 09:32N 59°55' E 030°14'0 0.0
2016-Jan-30 08:32N 59°55' E 030°14'0 0.0
2016-Jan-30 07:32N 59°55' E 030°14'0 0.0
2016-Jan-30 06:32N 59°55' E 030°14'0 0.0
2016-Jan-30 05:32N 59°55' E 030°14'0 0.0
2016-Jan-30 04:32N 59°55' E 030°14'0 0.0
2016-Jan-30 03:32N 59°55' E 030°14'0 0.0
2016-Jan-30 02:32N 59°55' E 030°14'0 0.0
2016-Jan-30 01:32N 59°55' E 030°14'0 0.0
2016-Jan-30 00:32N 59°55' E 030°14'0 0.0
2016-Jan-29 23:32N 59°55' E 030°14'0 0.0
2016-Jan-29 22:32N 59°55' E 030°14'0 0.0
2016-Jan-29 21:32N 59°55' E 030°14'0 0.0
2016-Jan-29 20:32N 59°55' E 030°14'0 0.0
2016-Jan-29 19:32N 59°55' E 030°14'0 0.0
2016-Jan-29 18:32N 59°55' E 030°14'0 0.0
2016-Jan-29 17:32N 59°55' E 030°14'0 0.0
2016-Jan-29 16:32N 59°55' E 030°14'0 0.0
2016-Jan-29 15:32N 59°55' E 030°14'0 0.0
2016-Jan-29 14:32N 59°55' E 030°14'0 0.0
2016-Jan-29 13:29N 59°55' E 030°14'0 0.0
2016-Jan-29 12:32N 59°55' E 030°14'0 0.0
2016-Jan-29 11:32N 59°55' E 030°14'0 0.0
2016-Jan-29 10:32N 59°55' E 030°14'0 0.0
2016-Jan-29 09:32N 59°55' E 030°14'0 0.0
2016-Jan-29 08:32N 59°55' E 030°14'0 0.0
2016-Jan-29 07:32N 59°55' E 030°14'0 0.0
2016-Jan-29 06:32N 59°55' E 030°14'0 0.0
2016-Jan-29 05:32N 59°55' E 030°14'0 0.0
2016-Jan-29 04:32N 59°55' E 030°14'0 0.0
2016-Jan-29 03:32N 59°55' E 030°14'0 0.0
2016-Jan-29 02:32N 59°55' E 030°14'0 0.0
2016-Jan-29 01:32N 59°55' E 030°14'0 0.0
2016-Jan-29 00:32N 59°55' E 030°14'0 0.0
2016-Jan-28 23:32N 59°55' E 030°14'0 0.0
2016-Jan-28 22:32N 59°55' E 030°14'0 0.0
2016-Jan-28 21:32N 59°55' E 030°14'0 0.0
2016-Jan-28 20:32N 59°55' E 030°14'0 0.0
2016-Jan-28 19:32N 59°55' E 030°14'0 0.0
2016-Jan-28 18:32N 59°55' E 030°14'0 0.0
2016-Jan-28 17:32N 59°55' E 030°14'0 0.0
2016-Jan-28 16:32N 59°55' E 030°14'0 0.0
2016-Jan-28 15:32N 59°55' E 030°14'0 0.0
2016-Jan-28 14:32N 59°55' E 030°14'0 0.0
2016-Jan-28 13:32N 59°55' E 030°14'0 0.0
2016-Jan-28 12:32N 59°55' E 030°14'0 0.0
2016-Jan-28 11:32N 59°55' E 030°14'0 0.0
2016-Jan-28 10:32N 59°55' E 030°14'0 0.0
2016-Jan-28 09:32N 59°55' E 030°14'0 0.0
2016-Jan-28 08:32N 59°55' E 030°14'0 0.0
2016-Jan-28 07:29N 59°55' E 030°14'0 0.0
2016-Jan-28 06:32N 59°55' E 030°14'0 0.0
2016-Jan-28 05:32N 59°55' E 030°14'0 0.0
2016-Jan-28 04:32N 59°55' E 030°14'0 0.0
2016-Jan-28 03:32N 59°55' E 030°14'0 0.0
2016-Jan-28 02:32N 59°55' E 030°14'  

Dump ship's entire track history